sensor_id;sensor_type;location;lat;lon;timestamp;temperature;humidity
24412;DHT22;12544;46.760;15.942;2023-04-24T00:00:05;13.90;99.90
24412;DHT22;12544;46.760;15.942;2023-04-24T00:02:38;13.90;99.90
24412;DHT22;12544;46.760;15.942;2023-04-24T00:05:07;14.00;99.90
24412;DHT22;12544;46.760;15.942;2023-04-24T00:07:34;14.00;99.90
24412;DHT22;12544;46.760;15.942;2023-04-24T00:09:59;14.00;99.90
24412;DHT22;12544;46.760;15.942;2023-04-24T00:12:35;14.00;99.90
24412;DHT22;12544;46.760;15.942;2023-04-24T00:15:01;14.00;99.90
24412;DHT22;12544;46.760;15.942;2023-04-24T00:17:27;14.00;99.90
24412;DHT22;12544;46.760;15.942;2023-04-24T00:19:53;14.00;99.90
24412;DHT22;12544;46.760;15.942;2023-04-24T00:22:24;13.90;99.90
24412;DHT22;12544;46.760;15.942;2023-04-24T00:24:50;13.90;99.90
24412;DHT22;12544;46.760;15.942;2023-04-24T00:27:16;13.90;99.90
24412;DHT22;12544;46.760;15.942;2023-04-24T00:29:41;13.80;99.90
24412;DHT22;12544;46.760;15.942;2023-04-24T00:32:10;13.80;99.90
24412;DHT22;12544;46.760;15.942;2023-04-24T00:34:36;13.70;99.90
24412;DHT22;12544;46.760;15.942;2023-04-24T00:37:02;13.70;99.90
24412;DHT22;12544;46.760;15.942;2023-04-24T00:39:27;13.70;99.90
24412;DHT22;12544;46.760;15.942;2023-04-24T00:41:53;13.70;99.90
24412;DHT22;12544;46.760;15.942;2023-04-24T00:44:19;13.80;99.90
24412;DHT22;12544;46.760;15.942;2023-04-24T00:46:46;13.90;99.90
24412;DHT22;12544;46.760;15.942;2023-04-24T00:49:13;13.90;99.90
24412;DHT22;12544;46.760;15.942;2023-04-24T00:51:41;13.80;99.90
24412;DHT22;12544;46.760;15.942;2023-04-24T00:54:12;13.80;99.90
24412;DHT22;12544;46.760;15.942;2023-04-24T00:56:38;13.80;99.90
24412;DHT22;12544;46.760;15.942;2023-04-24T00:59:04;13.70;99.90
24412;DHT22;12544;46.760;15.942;2023-04-24T01:01:30;13.60;99.90
24412;DHT22;12544;46.760;15.942;2023-04-24T01:03:57;13.60;99.90
24412;DHT22;12544;46.760;15.942;2023-04-24T01:06:27;13.50;99.90
24412;DHT22;12544;46.760;15.942;2023-04-24T01:08:54;13.50;99.90
24412;DHT22;12544;46.760;15.942;2023-04-24T01:11:21;13.40;99.90
24412;DHT22;12544;46.760;15.942;2023-04-24T01:13:48;13.30;99.90
24412;DHT22;12544;46.760;15.942;2023-04-24T01:16:14;13.30;99.90
24412;DHT22;12544;46.760;15.942;2023-04-24T01:18:47;13.20;99.90
24412;DHT22;12544;46.760;15.942;2023-04-24T01:21:15;13.10;99.90
24412;DHT22;12544;46.760;15.942;2023-04-24T01:23:45;13.00;99.90
24412;DHT22;12544;46.760;15.942;2023-04-24T01:26:11;12.90;99.90
24412;DHT22;12544;46.760;15.942;2023-04-24T01:28:37;12.90;99.90
24412;DHT22;12544;46.760;15.942;2023-04-24T01:31:03;12.80;99.90
24412;DHT22;12544;46.760;15.942;2023-04-24T01:33:29;12.70;99.90
24412;DHT22;12544;46.760;15.942;2023-04-24T01:35:55;12.70;99.90
24412;DHT22;12544;46.760;15.942;2023-04-24T01:38:20;12.70;99.90
24412;DHT22;12544;46.760;15.942;2023-04-24T01:40:46;12.70;99.90
24412;DHT22;12544;46.760;15.942;2023-04-24T01:43:12;12.60;99.90
24412;DHT22;12544;46.760;15.942;2023-04-24T01:45:38;12.70;99.90
24412;DHT22;12544;46.760;15.942;2023-04-24T01:48:04;12.70;99.90
24412;DHT22;12544;46.760;15.942;2023-04-24T01:50:30;12.70;99.90
24412;DHT22;12544;46.760;15.942;2023-04-24T01:52:56;12.60;99.90
24412;DHT22;12544;46.760;15.942;2023-04-24T01:55:22;12.60;99.90
24412;DHT22;12544;46.760;15.942;2023-04-24T01:57:48;12.60;99.90
24412;DHT22;12544;46.760;15.942;2023-04-24T02:00:14;12.70;99.90
24412;DHT22;12544;46.760;15.942;2023-04-24T02:02:40;12.70;99.90
24412;DHT22;12544;46.760;15.942;2023-04-24T02:05:07;12.80;99.90
24412;DHT22;12544;46.760;15.942;2023-04-24T02:07:33;12.80;99.90
24412;DHT22;12544;46.760;15.942;2023-04-24T02:09:59;12.80;99.90
24412;DHT22;12544;46.760;15.942;2023-04-24T02:12:24;12.80;99.90
24412;DHT22;12544;46.760;15.942;2023-04-24T02:14:50;12.90;99.90
24412;DHT22;12544;46.760;15.942;2023-04-24T02:17:16;12.90;99.90
24412;DHT22;12544;46.760;15.942;2023-04-24T02:19:42;12.90;99.90
24412;DHT22;12544;46.760;15.942;2023-04-24T02:22:07;12.90;99.90
24412;DHT22;12544;46.760;15.942;2023-04-24T02:24:33;12.90;99.90
24412;DHT22;12544;46.760;15.942;2023-04-24T02:26:59;13.00;99.90
24412;DHT22;12544;46.760;15.942;2023-04-24T02:29:25;13.00;99.90
24412;DHT22;12544;46.760;15.942;2023-04-24T02:31:51;13.10;99.90
24412;DHT22;12544;46.760;15.942;2023-04-24T02:34:16;13.20;99.90
24412;DHT22;12544;46.760;15.942;2023-04-24T02:36:42;13.20;99.90
24412;DHT22;12544;46.760;15.942;2023-04-24T02:39:08;13.10;99.90
24412;DHT22;12544;46.760;15.942;2023-04-24T02:41:33;13.10;99.90
24412;DHT22;12544;46.760;15.942;2023-04-24T02:43:59;13.10;99.90
24412;DHT22;12544;46.760;15.942;2023-04-24T02:46:26;13.10;99.90
24412;DHT22;12544;46.760;15.942;2023-04-24T02:48:51;13.00;99.90
24412;DHT22;12544;46.760;15.942;2023-04-24T02:51:17;13.00;99.90
24412;DHT22;12544;46.760;15.942;2023-04-24T02:53:43;12.90;99.90
24412;DHT22;12544;46.760;15.942;2023-04-24T02:56:08;12.80;99.90
24412;DHT22;12544;46.760;15.942;2023-04-24T02:58:37;12.80;99.90
24412;DHT22;12544;46.760;15.942;2023-04-24T03:01:03;12.80;99.90
24412;DHT22;12544;46.760;15.942;2023-04-24T03:03:28;12.80;99.90
24412;DHT22;12544;46.760;15.942;2023-04-24T03:06:00;12.90;99.90
24412;DHT22;12544;46.760;15.942;2023-04-24T03:08:27;13.00;99.90
24412;DHT22;12544;46.760;15.942;2023-04-24T03:10:52;13.10;99.90
24412;DHT22;12544;46.760;15.942;2023-04-24T03:13:18;13.10;99.90
24412;DHT22;12544;46.760;15.942;2023-04-24T03:15:44;13.20;99.90
24412;DHT22;12544;46.760;15.942;2023-04-24T03:18:10;13.20;99.90
24412;DHT22;12544;46.760;15.942;2023-04-24T03:20:38;13.20;99.90
24412;DHT22;12544;46.760;15.942;2023-04-24T03:23:03;13.20;99.90
24412;DHT22;12544;46.760;15.942;2023-04-24T03:25:29;13.20;99.90
24412;DHT22;12544;46.760;15.942;2023-04-24T03:27:55;13.20;99.90
24412;DHT22;12544;46.760;15.942;2023-04-24T03:30:21;13.20;99.90
24412;DHT22;12544;46.760;15.942;2023-04-24T03:32:47;13.10;99.90
24412;DHT22;12544;46.760;15.942;2023-04-24T03:35:13;13.10;99.90
24412;DHT22;12544;46.760;15.942;2023-04-24T03:37:39;13.20;99.90
24412;DHT22;12544;46.760;15.942;2023-04-24T03:40:05;13.30;99.90
24412;DHT22;12544;46.760;15.942;2023-04-24T03:42:32;13.30;99.90
24412;DHT22;12544;46.760;15.942;2023-04-24T03:44:58;13.40;99.90
24412;DHT22;12544;46.760;15.942;2023-04-24T03:47:23;13.50;99.90
24412;DHT22;12544;46.760;15.942;2023-04-24T03:49:49;13.60;99.90
24412;DHT22;12544;46.760;15.942;2023-04-24T03:52:15;13.60;99.90
24412;DHT22;12544;46.760;15.942;2023-04-24T03:54:41;13.60;99.90
24412;DHT22;12544;46.760;15.942;2023-04-24T03:57:06;13.50;99.90
24412;DHT22;12544;46.760;15.942;2023-04-24T03:59:32;13.50;99.90
24412;DHT22;12544;46.760;15.942;2023-04-24T04:01:57;13.40;99.90
24412;DHT22;12544;46.760;15.942;2023-04-24T04:04:23;13.40;99.90
24412;DHT22;12544;46.760;15.942;2023-04-24T04:06:49;13.40;99.90
24412;DHT22;12544;46.760;15.942;2023-04-24T04:09:14;13.30;99.90
24412;DHT22;12544;46.760;15.942;2023-04-24T04:11:40;13.20;99.90
24412;DHT22;12544;46.760;15.942;2023-04-24T04:14:06;13.30;99.90
24412;DHT22;12544;46.760;15.942;2023-04-24T04:16:31;13.20;99.90
24412;DHT22;12544;46.760;15.942;2023-04-24T04:18:57;13.20;99.90
24412;DHT22;12544;46.760;15.942;2023-04-24T04:21:23;13.20;99.90
24412;DHT22;12544;46.760;15.942;2023-04-24T04:23:49;13.10;99.90
24412;DHT22;12544;46.760;15.942;2023-04-24T04:26:15;13.10;99.90
24412;DHT22;12544;46.760;15.942;2023-04-24T04:28:40;13.00;99.90
24412;DHT22;12544;46.760;15.942;2023-04-24T04:31:07;13.00;99.90
24412;DHT22;12544;46.760;15.942;2023-04-24T04:33:33;13.00;99.90
24412;DHT22;12544;46.760;15.942;2023-04-24T04:35:59;13.00;99.90
24412;DHT22;12544;46.760;15.942;2023-04-24T04:38:25;12.90;99.90
24412;DHT22;12544;46.760;15.942;2023-04-24T04:40:55;12.80;99.90
24412;DHT22;12544;46.760;15.942;2023-04-24T04:43:23;12.80;99.90
24412;DHT22;12544;46.760;15.942;2023-04-24T04:45:49;12.80;99.90
24412;DHT22;12544;46.760;15.942;2023-04-24T04:48:17;12.90;99.90
24412;DHT22;12544;46.760;15.942;2023-04-24T04:50:43;12.90;99.90
24412;DHT22;12544;46.760;15.942;2023-04-24T04:53:13;13.00;99.90
24412;DHT22;12544;46.760;15.942;2023-04-24T04:55:39;13.00;99.90
24412;DHT22;12544;46.760;15.942;2023-04-24T04:58:05;13.10;99.90
24412;DHT22;12544;46.760;15.942;2023-04-24T05:00:31;13.00;99.90
24412;DHT22;12544;46.760;15.942;2023-04-24T05:03:01;13.10;99.90
24412;DHT22;12544;46.760;15.942;2023-04-24T05:05:27;13.20;99.90
24412;DHT22;12544;46.760;15.942;2023-04-24T05:07:53;13.20;99.90
24412;DHT22;12544;46.760;15.942;2023-04-24T05:10:19;13.30;99.90
24412;DHT22;12544;46.760;15.942;2023-04-24T05:12:44;13.30;99.90
24412;DHT22;12544;46.760;15.942;2023-04-24T05:15:10;13.30;99.90
24412;DHT22;12544;46.760;15.942;2023-04-24T05:17:36;13.30;99.90
24412;DHT22;12544;46.760;15.942;2023-04-24T05:20:03;13.30;99.90
24412;DHT22;12544;46.760;15.942;2023-04-24T05:22:31;13.30;99.90
24412;DHT22;12544;46.760;15.942;2023-04-24T05:24:56;13.20;99.90
24412;DHT22;12544;46.760;15.942;2023-04-24T05:27:22;13.20;99.90
24412;DHT22;12544;46.760;15.942;2023-04-24T05:29:48;13.10;99.90
24412;DHT22;12544;46.760;15.942;2023-04-24T05:32:14;13.10;99.90
24412;DHT22;12544;46.760;15.942;2023-04-24T05:34:39;13.10;99.90
24412;DHT22;12544;46.760;15.942;2023-04-24T05:37:06;13.10;99.90
24412;DHT22;12544;46.760;15.942;2023-04-24T05:39:35;13.10;99.90
24412;DHT22;12544;46.760;15.942;2023-04-24T05:42:01;13.10;99.90
24412;DHT22;12544;46.760;15.942;2023-04-24T05:44:27;13.10;99.90
24412;DHT22;12544;46.760;15.942;2023-04-24T05:46:53;13.10;99.90
24412;DHT22;12544;46.760;15.942;2023-04-24T05:49:20;13.00;99.90
24412;DHT22;12544;46.760;15.942;2023-04-24T05:51:46;13.10;99.90
24412;DHT22;12544;46.760;15.942;2023-04-24T05:54:11;13.30;99.90
24412;DHT22;12544;46.760;15.942;2023-04-24T05:56:37;13.30;99.90
24412;DHT22;12544;46.760;15.942;2023-04-24T05:59:03;13.50;99.90
24412;DHT22;12544;46.760;15.942;2023-04-24T06:01:29;13.60;99.90
24412;DHT22;12544;46.760;15.942;2023-04-24T06:04:07;13.70;99.90
24412;DHT22;12544;46.760;15.942;2023-04-24T06:06:32;13.80;99.90
24412;DHT22;12544;46.760;15.942;2023-04-24T06:08:58;13.90;99.90
24412;DHT22;12544;46.760;15.942;2023-04-24T06:11:24;14.00;99.90
24412;DHT22;12544;46.760;15.942;2023-04-24T06:13:50;14.10;99.90
24412;DHT22;12544;46.760;15.942;2023-04-24T06:16:17;14.20;99.90
24412;DHT22;12544;46.760;15.942;2023-04-24T06:18:42;14.20;99.90
24412;DHT22;12544;46.760;15.942;2023-04-24T06:21:08;14.30;99.90
24412;DHT22;12544;46.760;15.942;2023-04-24T06:23:34;14.40;99.90
24412;DHT22;12544;46.760;15.942;2023-04-24T06:26:01;14.50;99.90
24412;DHT22;12544;46.760;15.942;2023-04-24T06:28:26;14.60;99.90
24412;DHT22;12544;46.760;15.942;2023-04-24T06:30:52;14.80;99.90
24412;DHT22;12544;46.760;15.942;2023-04-24T06:33:17;15.00;99.90
24412;DHT22;12544;46.760;15.942;2023-04-24T06:35:43;15.00;99.90
24412;DHT22;12544;46.760;15.942;2023-04-24T06:38:09;15.10;99.90
24412;DHT22;12544;46.760;15.942;2023-04-24T06:40:34;15.10;99.90
24412;DHT22;12544;46.760;15.942;2023-04-24T06:43:00;15.20;99.90
24412;DHT22;12544;46.760;15.942;2023-04-24T06:45:34;15.10;99.90
24412;DHT22;12544;46.760;15.942;2023-04-24T06:48:00;15.10;99.90
24412;DHT22;12544;46.760;15.942;2023-04-24T06:50:25;15.10;99.90
24412;DHT22;12544;46.760;15.942;2023-04-24T06:52:51;15.10;99.90
24412;DHT22;12544;46.760;15.942;2023-04-24T06:55:17;15.10;99.90
24412;DHT22;12544;46.760;15.942;2023-04-24T06:57:42;15.10;99.90
24412;DHT22;12544;46.760;15.942;2023-04-24T07:00:09;15.10;99.90
24412;DHT22;12544;46.760;15.942;2023-04-24T07:02:35;15.10;99.90
24412;DHT22;12544;46.760;15.942;2023-04-24T07:05:01;15.10;99.90
24412;DHT22;12544;46.760;15.942;2023-04-24T07:07:27;15.20;99.90
24412;DHT22;12544;46.760;15.942;2023-04-24T07:09:53;15.30;99.90
24412;DHT22;12544;46.760;15.942;2023-04-24T07:12:19;15.50;99.90
24412;DHT22;12544;46.760;15.942;2023-04-24T07:14:47;15.60;99.90
24412;DHT22;12544;46.760;15.942;2023-04-24T07:17:12;15.70;99.90
24412;DHT22;12544;46.760;15.942;2023-04-24T07:19:38;15.80;99.90
24412;DHT22;12544;46.760;15.942;2023-04-24T07:22:04;15.90;99.90
24412;DHT22;12544;46.760;15.942;2023-04-24T07:24:30;15.90;99.90
24412;DHT22;12544;46.760;15.942;2023-04-24T07:26:58;15.90;99.90
24412;DHT22;12544;46.760;15.942;2023-04-24T07:29:23;15.90;99.90
24412;DHT22;12544;46.760;15.942;2023-04-24T07:31:50;15.80;99.90
24412;DHT22;12544;46.760;15.942;2023-04-24T07:34:15;15.80;99.90
24412;DHT22;12544;46.760;15.942;2023-04-24T07:36:41;15.70;99.90
24412;DHT22;12544;46.760;15.942;2023-04-24T07:39:07;15.60;99.90
24412;DHT22;12544;46.760;15.942;2023-04-24T07:41:33;15.50;99.90
24412;DHT22;12544;46.760;15.942;2023-04-24T07:43:59;15.50;99.90
24412;DHT22;12544;46.760;15.942;2023-04-24T07:46:25;15.40;99.90
24412;DHT22;12544;46.760;15.942;2023-04-24T07:48:50;15.30;99.90
24412;DHT22;12544;46.760;15.942;2023-04-24T07:51:16;15.20;99.90
24412;DHT22;12544;46.760;15.942;2023-04-24T07:53:43;15.10;99.90
24412;DHT22;12544;46.760;15.942;2023-04-24T07:56:09;15.10;99.90
24412;DHT22;12544;46.760;15.942;2023-04-24T07:58:35;15.00;99.90
24412;DHT22;12544;46.760;15.942;2023-04-24T08:01:01;14.90;99.90
24412;DHT22;12544;46.760;15.942;2023-04-24T08:03:26;14.80;99.90
24412;DHT22;12544;46.760;15.942;2023-04-24T08:05:52;14.80;99.90
24412;DHT22;12544;46.760;15.942;2023-04-24T08:08:19;14.70;99.90
24412;DHT22;12544;46.760;15.942;2023-04-24T08:10:45;14.70;99.90
24412;DHT22;12544;46.760;15.942;2023-04-24T08:13:11;14.70;99.90
24412;DHT22;12544;46.760;15.942;2023-04-24T08:15:37;14.60;99.90
24412;DHT22;12544;46.760;15.942;2023-04-24T08:18:02;14.60;99.90
24412;DHT22;12544;46.760;15.942;2023-04-24T08:20:28;14.50;99.90
24412;DHT22;12544;46.760;15.942;2023-04-24T08:22:54;14.50;99.90
24412;DHT22;12544;46.760;15.942;2023-04-24T08:25:20;14.40;99.90
24412;DHT22;12544;46.760;15.942;2023-04-24T08:27:48;14.50;99.90
24412;DHT22;12544;46.760;15.942;2023-04-24T08:30:14;14.40;99.90
24412;DHT22;12544;46.760;15.942;2023-04-24T08:32:40;14.40;99.90
24412;DHT22;12544;46.760;15.942;2023-04-24T08:35:06;14.40;99.90
24412;DHT22;12544;46.760;15.942;2023-04-24T08:37:34;14.40;99.90
24412;DHT22;12544;46.760;15.942;2023-04-24T08:40:01;14.40;99.90
24412;DHT22;12544;46.760;15.942;2023-04-24T08:42:28;14.40;99.90
24412;DHT22;12544;46.760;15.942;2023-04-24T08:44:54;14.40;99.90
24412;DHT22;12544;46.760;15.942;2023-04-24T08:47:22;14.40;99.90
24412;DHT22;12544;46.760;15.942;2023-04-24T08:49:48;14.40;99.90
24412;DHT22;12544;46.760;15.942;2023-04-24T08:52:15;14.30;99.90
24412;DHT22;12544;46.760;15.942;2023-04-24T08:54:41;14.30;99.90
24412;DHT22;12544;46.760;15.942;2023-04-24T08:57:09;14.20;99.90
24412;DHT22;12544;46.760;15.942;2023-04-24T08:59:38;14.20;99.90
24412;DHT22;12544;46.760;15.942;2023-04-24T09:02:04;14.20;99.90
24412;DHT22;12544;46.760;15.942;2023-04-24T09:04:30;14.20;99.90
24412;DHT22;12544;46.760;15.942;2023-04-24T09:06:58;14.20;99.90
24412;DHT22;12544;46.760;15.942;2023-04-24T09:09:25;14.20;99.90
24412;DHT22;12544;46.760;15.942;2023-04-24T09:11:52;14.20;99.90
24412;DHT22;12544;46.760;15.942;2023-04-24T09:14:21;14.10;99.90
24412;DHT22;12544;46.760;15.942;2023-04-24T09:16:48;14.10;99.90
24412;DHT22;12544;46.760;15.942;2023-04-24T09:19:14;14.10;99.90
24412;DHT22;12544;46.760;15.942;2023-04-24T09:21:39;14.00;99.90
24412;DHT22;12544;46.760;15.942;2023-04-24T09:24:16;14.00;99.90
24412;DHT22;12544;46.760;15.942;2023-04-24T09:26:48;13.90;99.90
24412;DHT22;12544;46.760;15.942;2023-04-24T09:29:17;13.90;99.90
24412;DHT22;12544;46.760;15.942;2023-04-24T09:31:44;13.80;99.90
24412;DHT22;12544;46.760;15.942;2023-04-24T09:34:11;13.70;99.90
24412;DHT22;12544;46.760;15.942;2023-04-24T09:36:46;13.70;99.90
24412;DHT22;12544;46.760;15.942;2023-04-24T09:39:13;13.70;99.90
24412;DHT22;12544;46.760;15.942;2023-04-24T09:41:52;13.60;99.90
24412;DHT22;12544;46.760;15.942;2023-04-24T09:44:22;13.60;99.90
24412;DHT22;12544;46.760;15.942;2023-04-24T09:49:25;13.70;99.90
24412;DHT22;12544;46.760;15.942;2023-04-24T09:51:52;13.80;99.90
24412;DHT22;12544;46.760;15.942;2023-04-24T09:54:31;13.90;99.90
24412;DHT22;12544;46.760;15.942;2023-04-24T09:56:56;14.00;99.90
24412;DHT22;12544;46.760;15.942;2023-04-24T09:59:22;14.00;99.90
24412;DHT22;12544;46.760;15.942;2023-04-24T10:01:49;14.10;99.90
24412;DHT22;12544;46.760;15.942;2023-04-24T10:04:22;14.20;99.90
24412;DHT22;12544;46.760;15.942;2023-04-24T10:06:51;14.20;99.90
24412;DHT22;12544;46.760;15.942;2023-04-24T10:09:21;14.20;99.90
24412;DHT22;12544;46.760;15.942;2023-04-24T10:11:50;14.30;99.90
24412;DHT22;12544;46.760;15.942;2023-04-24T10:14:21;14.30;99.90
24412;DHT22;12544;46.760;15.942;2023-04-24T10:16:48;14.30;99.90
24412;DHT22;12544;46.760;15.942;2023-04-24T10:19:15;14.40;99.90
24412;DHT22;12544;46.760;15.942;2023-04-24T10:21:42;14.40;99.90
24412;DHT22;12544;46.760;15.942;2023-04-24T10:24:15;14.40;99.90
24412;DHT22;12544;46.760;15.942;2023-04-24T10:26:42;14.40;99.90
24412;DHT22;12544;46.760;15.942;2023-04-24T10:29:08;14.40;99.90
24412;DHT22;12544;46.760;15.942;2023-04-24T10:31:37;14.40;99.90
24412;DHT22;12544;46.760;15.942;2023-04-24T10:34:05;14.40;99.90
24412;DHT22;12544;46.760;15.942;2023-04-24T10:36:33;14.40;99.90
24412;DHT22;12544;46.760;15.942;2023-04-24T10:39:01;14.40;99.90
24412;DHT22;12544;46.760;15.942;2023-04-24T10:41:30;14.40;99.90
24412;DHT22;12544;46.760;15.942;2023-04-24T10:44:09;14.40;99.90
24412;DHT22;12544;46.760;15.942;2023-04-24T10:46:36;14.30;99.90
24412;DHT22;12544;46.760;15.942;2023-04-24T10:49:08;14.20;99.90
24412;DHT22;12544;46.760;15.942;2023-04-24T10:51:50;14.20;99.90
24412;DHT22;12544;46.760;15.942;2023-04-24T10:56:53;14.10;99.90
24412;DHT22;12544;46.760;15.942;2023-04-24T10:59:26;14.20;99.90
24412;DHT22;12544;46.760;15.942;2023-04-24T11:01:55;14.20;99.90
24412;DHT22;12544;46.760;15.942;2023-04-24T11:04:31;14.30;99.90
24412;DHT22;12544;46.760;15.942;2023-04-24T11:06:57;14.40;99.90
24412;DHT22;12544;46.760;15.942;2023-04-24T11:09:35;14.40;99.90
24412;DHT22;12544;46.760;15.942;2023-04-24T11:12:07;14.50;99.90
24412;DHT22;12544;46.760;15.942;2023-04-24T11:17:42;14.70;99.90
24412;DHT22;12544;46.760;15.942;2023-04-24T11:20:15;14.80;99.90
24412;DHT22;12544;46.760;15.942;2023-04-24T11:22:44;14.80;99.90
24412;DHT22;12544;46.760;15.942;2023-04-24T11:25:10;14.80;99.90
24412;DHT22;12544;46.760;15.942;2023-04-24T11:27:42;14.70;99.90
24412;DHT22;12544;46.760;15.942;2023-04-24T11:30:09;14.70;99.90
24412;DHT22;12544;46.760;15.942;2023-04-24T11:32:40;14.60;99.90
24412;DHT22;12544;46.760;15.942;2023-04-24T11:35:13;14.60;99.90
24412;DHT22;12544;46.760;15.942;2023-04-24T11:37:45;14.50;99.90
24412;DHT22;12544;46.760;15.942;2023-04-24T11:40:32;14.40;99.90
24412;DHT22;12544;46.760;15.942;2023-04-24T11:43:00;14.40;99.90
24412;DHT22;12544;46.760;15.942;2023-04-24T11:45:28;14.40;99.90
24412;DHT22;12544;46.760;15.942;2023-04-24T11:47:53;14.50;99.90
24412;DHT22;12544;46.760;15.942;2023-04-24T11:50:22;14.60;99.90
24412;DHT22;12544;46.760;15.942;2023-04-24T11:52:49;14.80;99.90
24412;DHT22;12544;46.760;15.942;2023-04-24T11:57:52;14.70;99.90
24412;DHT22;12544;46.760;15.942;2023-04-24T12:02:44;14.60;99.90
24412;DHT22;12544;46.760;15.942;2023-04-24T12:05:23;14.60;99.90
24412;DHT22;12544;46.760;15.942;2023-04-24T12:07:49;14.50;99.90
24412;DHT22;12544;46.760;15.942;2023-04-24T12:10:19;14.40;99.90
24412;DHT22;12544;46.760;15.942;2023-04-24T12:12:45;14.40;99.90
24412;DHT22;12544;46.760;15.942;2023-04-24T12:15:12;14.40;99.90
24412;DHT22;12544;46.760;15.942;2023-04-24T12:17:41;14.40;99.90
24412;DHT22;12544;46.760;15.942;2023-04-24T12:20:07;14.30;99.90
24412;DHT22;12544;46.760;15.942;2023-04-24T12:22:50;14.30;99.90
24412;DHT22;12544;46.760;15.942;2023-04-24T12:25:18;14.20;99.90
24412;DHT22;12544;46.760;15.942;2023-04-24T12:27:45;14.30;99.90
24412;DHT22;12544;46.760;15.942;2023-04-24T12:30:16;14.30;99.90
24412;DHT22;12544;46.760;15.942;2023-04-24T12:32:50;14.30;99.90
24412;DHT22;12544;46.760;15.942;2023-04-24T12:35:21;14.40;99.90
24412;DHT22;12544;46.760;15.942;2023-04-24T12:37:47;14.40;99.90
24412;DHT22;12544;46.760;15.942;2023-04-24T12:40:13;14.40;99.90
24412;DHT22;12544;46.760;15.942;2023-04-24T12:45:13;14.20;99.90
24412;DHT22;12544;46.760;15.942;2023-04-24T12:47:40;14.20;99.90
24412;DHT22;12544;46.760;15.942;2023-04-24T12:50:08;14.20;99.90
24412;DHT22;12544;46.760;15.942;2023-04-24T12:52:34;14.20;99.90
24412;DHT22;12544;46.760;15.942;2023-04-24T12:55:00;14.20;99.90
24412;DHT22;12544;46.760;15.942;2023-04-24T12:57:28;14.20;99.90
24412;DHT22;12544;46.760;15.942;2023-04-24T12:59:57;14.20;99.90
24412;DHT22;12544;46.760;15.942;2023-04-24T13:02:24;14.20;99.90
24412;DHT22;12544;46.760;15.942;2023-04-24T13:04:51;14.20;99.90
24412;DHT22;12544;46.760;15.942;2023-04-24T13:07:17;14.30;99.90
24412;DHT22;12544;46.760;15.942;2023-04-24T13:09:44;14.30;99.90
24412;DHT22;12544;46.760;15.942;2023-04-24T13:12:11;14.20;99.90
24412;DHT22;12544;46.760;15.942;2023-04-24T13:14:37;14.20;99.90
24412;DHT22;12544;46.760;15.942;2023-04-24T13:17:03;14.20;99.90
24412;DHT22;12544;46.760;15.942;2023-04-24T13:19:29;14.10;99.90
24412;DHT22;12544;46.760;15.942;2023-04-24T13:21:56;14.10;99.90
24412;DHT22;12544;46.760;15.942;2023-04-24T13:24:25;14.00;99.90
24412;DHT22;12544;46.760;15.942;2023-04-24T13:26:52;14.00;99.90
24412;DHT22;12544;46.760;15.942;2023-04-24T13:29:18;13.90;99.90
24412;DHT22;12544;46.760;15.942;2023-04-24T13:31:43;13.90;99.90
24412;DHT22;12544;46.760;15.942;2023-04-24T13:34:09;13.90;99.90
24412;DHT22;12544;46.760;15.942;2023-04-24T13:36:36;13.90;99.90
24412;DHT22;12544;46.760;15.942;2023-04-24T13:39:02;13.80;99.90
24412;DHT22;12544;46.760;15.942;2023-04-24T13:41:33;13.80;99.90
24412;DHT22;12544;46.760;15.942;2023-04-24T13:43:58;13.70;99.90
24412;DHT22;12544;46.760;15.942;2023-04-24T13:46:24;13.80;99.90
24412;DHT22;12544;46.760;15.942;2023-04-24T13:48:50;13.90;99.90
24412;DHT22;12544;46.760;15.942;2023-04-24T13:51:16;13.90;99.90
24412;DHT22;12544;46.760;15.942;2023-04-24T13:53:41;13.90;99.90
24412;DHT22;12544;46.760;15.942;2023-04-24T13:56:07;13.90;99.90
24412;DHT22;12544;46.760;15.942;2023-04-24T13:58:34;14.00;99.90
24412;DHT22;12544;46.760;15.942;2023-04-24T14:01:02;14.00;99.90
24412;DHT22;12544;46.760;15.942;2023-04-24T14:03:28;14.00;99.90
24412;DHT22;12544;46.760;15.942;2023-04-24T14:05:55;13.90;99.90
24412;DHT22;12544;46.760;15.942;2023-04-24T14:08:21;13.90;99.90
24412;DHT22;12544;46.760;15.942;2023-04-24T14:10:47;14.00;99.90
24412;DHT22;12544;46.760;15.942;2023-04-24T14:13:13;13.90;99.90
24412;DHT22;12544;46.760;15.942;2023-04-24T14:15:38;13.90;99.90
24412;DHT22;12544;46.760;15.942;2023-04-24T14:18:04;13.90;99.90
24412;DHT22;12544;46.760;15.942;2023-04-24T14:20:30;13.90;99.90
24412;DHT22;12544;46.760;15.942;2023-04-24T14:22:56;13.70;99.90
24412;DHT22;12544;46.760;15.942;2023-04-24T14:25:24;13.70;99.90
24412;DHT22;12544;46.760;15.942;2023-04-24T14:27:50;13.60;99.90
24412;DHT22;12544;46.760;15.942;2023-04-24T14:30:22;13.60;99.90
24412;DHT22;12544;46.760;15.942;2023-04-24T14:32:48;13.50;99.90
24412;DHT22;12544;46.760;15.942;2023-04-24T14:35:14;13.60;99.90
24412;DHT22;12544;46.760;15.942;2023-04-24T14:37:40;13.50;99.90
24412;DHT22;12544;46.760;15.942;2023-04-24T14:40:07;13.50;99.90
24412;DHT22;12544;46.760;15.942;2023-04-24T14:42:33;13.50;99.90
24412;DHT22;12544;46.760;15.942;2023-04-24T14:44:59;13.50;99.90
24412;DHT22;12544;46.760;15.942;2023-04-24T14:47:25;13.50;99.90
24412;DHT22;12544;46.760;15.942;2023-04-24T14:49:51;13.50;99.90
24412;DHT22;12544;46.760;15.942;2023-04-24T14:52:16;13.40;99.90
24412;DHT22;12544;46.760;15.942;2023-04-24T14:54:42;13.40;99.90
24412;DHT22;12544;46.760;15.942;2023-04-24T14:57:08;13.40;99.90
24412;DHT22;12544;46.760;15.942;2023-04-24T14:59:34;13.30;99.90
24412;DHT22;12544;46.760;15.942;2023-04-24T15:02:00;13.30;99.90
24412;DHT22;12544;46.760;15.942;2023-04-24T15:04:27;13.30;99.90
24412;DHT22;12544;46.760;15.942;2023-04-24T15:06:53;13.40;99.90
24412;DHT22;12544;46.760;15.942;2023-04-24T15:09:20;13.40;99.90
24412;DHT22;12544;46.760;15.942;2023-04-24T15:11:47;13.40;99.90
24412;DHT22;12544;46.760;15.942;2023-04-24T15:14:14;13.30;99.90
24412;DHT22;12544;46.760;15.942;2023-04-24T15:16:40;13.20;99.90
24412;DHT22;12544;46.760;15.942;2023-04-24T15:19:06;13.10;99.90
24412;DHT22;12544;46.760;15.942;2023-04-24T15:21:31;12.90;99.90
24412;DHT22;12544;46.760;15.942;2023-04-24T15:23:57;12.90;99.90
24412;DHT22;12544;46.760;15.942;2023-04-24T15:26:24;12.90;99.90
24412;DHT22;12544;46.760;15.942;2023-04-24T15:28:51;12.90;99.90